Time;durP1;ratioP1;P1;durP2;ratioP2;P2;SDS_P1;SDS_P2;PMS_P1;PMS_P2;Temp;Humidity;BMP_temperature;BMP_pressure;BME280_temperature;BME280_humidity;BME280_pressure;Samples;Min_cycle;Max_cycle;Signal;HPM_P1;HPM_P2
2021/09/17 00:01:38;;;;;;;3.65;3.10;;;;;;;;;;5092890;28;20198;-50
2021/09/17 00:04:04;;;;;;;2.85;2.60;;;;;;;;;;5090714;28;20178;-50
2021/09/17 00:06:30;;;;;;;2.47;2.25;;;;;;;;;;5094029;28;20173;-50
2021/09/17 00:08:56;;;;;;;4.72;2.30;;;;;;;;;;5090449;28;20511;-51
2021/09/17 00:11:22;;;;;;;2.10;2.00;;;;;;;;;;5076861;28;20193;-51
2021/09/17 00:13:48;;;;;;;3.28;2.00;;;;;;;;;;5103052;28;20602;-51
2021/09/17 00:16:14;;;;;;;1.95;1.85;;;;;;;;;;5092428;28;20217;-50
2021/09/17 00:18:40;;;;;;;2.17;1.92;;;;;;;;;;5094398;28;20205;-50
2021/09/17 00:21:06;;;;;;;2.28;2.08;;;;;;;;;;5093453;28;20177;-51
2021/09/17 00:23:32;;;;;;;2.05;1.60;;;;;;;;;;5096750;28;20172;-51
2021/09/17 00:25:59;;;;;;;2.30;1.60;;;;;;;;;;5095703;28;20193;-50
2021/09/17 00:28:25;;;;;;;1.75;1.52;;;;;;;;;;5095815;28;20820;-50
2021/09/17 00:30:51;;;;;;;1.42;1.30;;;;;;;;;;5095275;28;20182;-51
2021/09/17 00:33:17;;;;;;;1.90;1.67;;;;;;;;;;5087425;28;20182;-51
2021/09/17 00:35:43;;;;;;;2.78;1.63;;;;;;;;;;5075793;28;20227;-50
2021/09/17 00:38:09;;;;;;;1.73;1.50;;;;;;;;;;5075482;28;20206;-50
2021/09/17 00:40:35;;;;;;;1.60;1.40;;;;;;;;;;5075864;28;20185;-50
2021/09/17 00:43:01;;;;;;;2.10;1.55;;;;;;;;;;5086245;28;20663;-50
2021/09/17 00:45:27;;;;;;;3.58;1.38;;;;;;;;;;5075842;28;20205;-51
2021/09/17 00:47:53;;;;;;;2.95;1.15;;;;;;;;;;5091027;28;20561;-50
2021/09/17 00:50:20;;;;;;;1.80;1.35;;;;;;;;;;5094700;28;20213;-50
2021/09/17 00:52:47;;;;;;;1.58;1.48;;;;;;;;;;5087064;28;20650;-50
2021/09/17 00:55:13;;;;;;;1.70;1.60;;;;;;;;;;5095738;28;20169;-50
2021/09/17 00:57:39;;;;;;;1.50;1.40;;;;;;;;;;5095218;28;20288;-50
2021/09/17 01:00:07;;;;;;;1.30;1.20;;;;;;;;;;5090421;28;20257;-51
2021/09/17 01:02:33;;;;;;;1.58;1.48;;;;;;;;;;5079402;28;20190;-50
2021/09/17 01:04:59;;;;;;;2.85;1.60;;;;;;;;;;5095041;28;20186;-50
2021/09/17 01:07:26;;;;;;;1.30;1.20;;;;;;;;;;5083701;28;20186;-51
2021/09/17 01:09:52;;;;;;;1.02;1.02;;;;;;;;;;5079625;28;20257;-51
2021/09/17 01:12:18;;;;;;;3.15;1.42;;;;;;;;;;5091206;28;20179;-51
2021/09/17 01:14:45;;;;;;;1.48;1.38;;;;;;;;;;5090521;28;20846;-50
2021/09/17 01:17:11;;;;;;;1.73;1.27;;;;;;;;;;5094417;28;20217;-50
2021/09/17 01:19:37;;;;;;;1.45;1.25;;;;;;;;;;5094846;28;20232;-50
2021/09/17 01:22:07;;;;;;;1.50;1.40;;;;;;;;;;5094624;28;20557;-50
2021/09/17 01:24:33;;;;;;;2.08;1.33;;;;;;;;;;5092574;28;20232;-50
2021/09/17 01:26:59;;;;;;;2.95;1.40;;;;;;;;;;5094726;28;20173;-50
2021/09/17 01:29:25;;;;;;;1.73;1.27;;;;;;;;;;5075056;28;20257;-51
2021/09/17 01:31:51;;;;;;;1.50;1.40;;;;;;;;;;5074819;28;20490;-50
2021/09/17 01:34:18;;;;;;;1.40;1.30;;;;;;;;;;5074728;28;20170;-50
2021/09/17 01:36:44;;;;;;;1.55;1.20;;;;;;;;;;5075110;28;20546;-50
2021/09/17 01:39:11;;;;;;;1.45;1.35;;;;;;;;;;5074148;28;20194;-50
2021/09/17 01:41:37;;;;;;;1.50;1.30;;;;;;;;;;5082616;28;20243;-51
2021/09/17 01:44:03;;;;;;;2.60;1.30;;;;;;;;;;5092770;28;20185;-50
2021/09/17 01:46:29;;;;;;;1.45;1.35;;;;;;;;;;5077019;28;20250;-51
2021/09/17 01:48:55;;;;;;;1.25;1.10;;;;;;;;;;5074009;28;20186;-50
2021/09/17 01:51:21;;;;;;;1.58;1.48;;;;;;;;;;5075994;28;20447;-51
2021/09/17 01:53:47;;;;;;;1.50;1.40;;;;;;;;;;5074503;28;20181;-50
2021/09/17 01:56:13;;;;;;;5.45;1.75;;;;;;;;;;5085922;28;20544;-51
2021/09/17 01:58:39;;;;;;;2.05;1.52;;;;;;;;;;5092969;28;20197;-50
2021/09/17 02:01:05;;;;;;;1.50;1.40;;;;;;;;;;5094501;28;20252;-51
2021/09/17 02:03:31;;;;;;;1.23;1.05;;;;;;;;;;5094523;28;20497;-51
2021/09/17 02:05:57;;;;;;;1.23;1.17;;;;;;;;;;5086814;28;20173;-51
2021/09/17 02:08:23;;;;;;;2.08;1.45;;;;;;;;;;5075780;28;20201;-51
2021/09/17 02:10:49;;;;;;;2.25;1.92;;;;;;;;;;5074690;28;20561;-50
2021/09/17 02:13:22;;;;;;;2.17;1.65;;;;;;;;;;5076657;28;20438;-50
2021/09/17 02:15:48;;;;;;;1.38;1.20;;;;;;;;;;5087945;28;20521;-50
2021/09/17 02:18:15;;;;;;;1.70;1.50;;;;;;;;;;5073497;28;20566;-50
2021/09/17 02:20:41;;;;;;;1.70;1.60;;;;;;;;;;5083839;28;20264;-50
2021/09/17 02:23:06;;;;;;;2.55;1.83;;;;;;;;;;5081022;28;20253;-50
2021/09/17 02:25:32;;;;;;;1.73;1.52;;;;;;;;;;5077800;28;20452;-50
2021/09/17 02:27:58;;;;;;;1.33;1.23;;;;;;;;;;5094035;28;20178;-50
2021/09/17 02:30:24;;;;;;;2.95;1.27;;;;;;;;;;5084894;28;20189;-50
2021/09/17 02:32:50;;;;;;;2.88;1.38;;;;;;;;;;5075401;28;20503;-50
2021/09/17 02:35:16;;;;;;;1.58;1.48;;;;;;;;;;5074207;28;20186;-51
2021/09/17 02:37:42;;;;;;;2.65;2.45;;;;;;;;;;5073628;28;20209;-50
2021/09/17 02:40:14;;;;;;;1.63;1.52;;;;;;;;;;5080679;28;20178;-50
2021/09/17 02:42:40;;;;;;;3.40;3.10;;;;;;;;;;5093635;28;20184;-51
2021/09/17 02:45:07;;;;;;;2.45;1.60;;;;;;;;;;5093757;28;20969;-50
2021/09/17 02:47:33;;;;;;;3.40;2.92;;;;;;;;;;5092024;28;20177;-50
2021/09/17 02:50:00;;;;;;;5.53;4.03;;;;;;;;;;5076527;28;20201;-50
2021/09/17 02:52:26;;;;;;;5.43;4.05;;;;;;;;;;5090721;28;20260;-50
2021/09/17 02:54:52;;;;;;;3.45;3.10;;;;;;;;;;5089520;28;20179;-50
2021/09/17 02:57:19;;;;;;;3.53;2.47;;;;;;;;;;5090746;28;20564;-50
2021/09/17 02:59:45;;;;;;;2.70;2.30;;;;;;;;;;5081243;28;20243;-51
2021/09/17 03:02:11;;;;;;;3.58;3.25;;;;;;;;;;5074121;28;20467;-50
2021/09/17 03:04:37;;;;;;;3.55;2.83;;;;;;;;;;5073784;28;20186;-50
2021/09/17 03:07:03;;;;;;;4.00;2.50;;;;;;;;;;5085485;28;20181;-50
2021/09/17 03:09:29;;;;;;;2.65;2.33;;;;;;;;;;5092809;28;20503;-50
2021/09/17 03:11:55;;;;;;;3.78;2.67;;;;;;;;;;5073772;28;20663;-50
2021/09/17 03:14:21;;;;;;;3.67;3.25;;;;;;;;;;5095933;28;20184;-50
2021/09/17 03:16:47;;;;;;;4.30;2.50;;;;;;;;;;5095414;28;20186;-50
2021/09/17 03:19:13;;;;;;;3.55;3.25;;;;;;;;;;5075388;28;20535;-51
2021/09/17 03:21:39;;;;;;;4.63;3.55;;;;;;;;;;5092961;28;20537;-51
2021/09/17 03:24:05;;;;;;;6.07;3.40;;;;;;;;;;5093742;28;20291;-50
2021/09/17 03:26:31;;;;;;;3.83;3.35;;;;;;;;;;5090232;28;20178;-50
2021/09/17 03:28:58;;;;;;;4.30;3.25;;;;;;;;;;5097057;28;20170;-50
2021/09/17 03:31:24;;;;;;;3.00;2.70;;;;;;;;;;5097301;28;20288;-50
2021/09/17 03:33:50;;;;;;;6.90;4.07;;;;;;;;;;5097177;28;20608;-50
2021/09/17 03:36:16;;;;;;;4.18;2.53;;;;;;;;;;5088590;28;20186;-50
2021/09/17 03:38:42;;;;;;;2.78;2.22;;;;;;;;;;5095779;28;20202;-50
2021/09/17 03:41:08;;;;;;;3.10;2.40;;;;;;;;;;5095340;28;20426;-50
2021/09/17 03:43:34;;;;;;;5.97;3.40;;;;;;;;;;5097432;28;20166;-50
2021/09/17 03:46:00;;;;;;;3.92;3.40;;;;;;;;;;5090719;28;20270;-51
2021/09/17 03:48:26;;;;;;;3.50;2.80;;;;;;;;;;5076454;28;20171;-51
2021/09/17 03:50:52;;;;;;;3.10;2.80;;;;;;;;;;5076696;28;20186;-50
2021/09/17 03:53:18;;;;;;;4.03;3.63;;;;;;;;;;5077341;28;20182;-51
2021/09/17 03:55:45;;;;;;;2.88;2.28;;;;;;;;;;5082980;28;20174;-50
2021/09/17 03:58:12;;;;;;;3.05;2.75;;;;;;;;;;5076355;28;20194;-50
2021/09/17 04:00:38;;;;;;;3.20;2.83;;;;;;;;;;5076911;28;20607;-50
2021/09/17 04:03:04;;;;;;;3.55;3.13;;;;;;;;;;5077113;28;20178;-50
2021/09/17 04:05:31;;;;;;;3.83;2.65;;;;;;;;;;5076129;28;20174;-50
2021/09/17 04:07:57;;;;;;;3.35;2.50;;;;;;;;;;5096488;28;20527;-50
2021/09/17 04:10:23;;;;;;;2.83;2.50;;;;;;;;;;5096290;28;20260;-50
2021/09/17 04:12:49;;;;;;;3.53;2.33;;;;;;;;;;5096892;28;20542;-50
2021/09/17 04:15:15;;;;;;;3.50;2.75;;;;;;;;;;5090859;28;20174;-50
2021/09/17 04:17:42;;;;;;;2.80;2.50;;;;;;;;;;5081963;28;20217;-50
2021/09/17 04:20:08;;;;;;;3.88;3.08;;;;;;;;;;5086155;28;20307;-50
2021/09/17 04:22:34;;;;;;;4.68;3.28;;;;;;;;;;5095475;28;20189;-50
2021/09/17 04:25:00;;;;;;;4.07;2.92;;;;;;;;;;5084557;28;20277;-51
2021/09/17 04:27:26;;;;;;;3.67;2.72;;;;;;;;;;5091148;28;20178;-50
2021/09/17 04:29:53;;;;;;;3.75;2.60;;;;;;;;;;5096042;28;20170;-50
2021/09/17 04:32:18;;;;;;;3.28;2.53;;;;;;;;;;5096724;28;20182;-50
2021/09/17 04:34:44;;;;;;;6.45;3.20;;;;;;;;;;5095831;28;20177;-50
2021/09/17 04:37:10;;;;;;;5.10;2.88;;;;;;;;;;5081228;28;20189;-50
2021/09/17 04:39:37;;;;;;;6.57;3.17;;;;;;;;;;5078843;28;20590;-50
2021/09/17 04:42:03;;;;;;;6.68;3.30;;;;;;;;;;5095323;28;20199;-50
2021/09/17 04:44:29;;;;;;;5.45;3.30;;;;;;;;;;5094896;28;20173;-50
2021/09/17 04:46:55;;;;;;;4.00;3.00;;;;;;;;;;5086889;28;20182;-51
2021/09/17 04:49:21;;;;;;;5.68;2.90;;;;;;;;;;5095226;28;20436;-50
2021/09/17 04:51:48;;;;;;;6.30;2.90;;;;;;;;;;5093893;28;20591;-50
2021/09/17 04:54:14;;;;;;;5.07;2.90;;;;;;;;;;5078717;28;20269;-50
2021/09/17 04:56:40;;;;;;;7.30;3.10;;;;;;;;;;5084880;28;20252;-50
2021/09/17 04:59:07;;;;;;;5.75;2.55;;;;;;;;;;5095166;28;20198;-50
2021/09/17 05:01:33;;;;;;;3.70;2.92;;;;;;;;;;5088943;28;20501;-51
2021/09/17 05:03:59;;;;;;;5.38;2.50;;;;;;;;;;5082765;28;20719;-51
2021/09/17 05:06:25;;;;;;;4.45;2.67;;;;;;;;;;5077158;28;20182;-50
2021/09/17 05:08:51;;;;;;;4.70;3.03;;;;;;;;;;5074704;28;20588;-50
2021/09/17 05:11:17;;;;;;;4.10;2.33;;;;;;;;;;5091428;28;20209;-50
2021/09/17 05:13:43;;;;;;;5.00;2.60;;;;;;;;;;5094934;28;20491;-50
2021/09/17 05:16:09;;;;;;;4.93;2.50;;;;;;;;;;5085021;28;20257;-50
2021/09/17 05:18:35;;;;;;;5.93;2.30;;;;;;;;;;5092989;28;20221;-50
2021/09/17 05:21:01;;;;;;;7.32;2.50;;;;;;;;;;5089688;28;20197;-51
2021/09/17 05:23:27;;;;;;;6.10;2.20;;;;;;;;;;5094307;28;20239;-50
2021/09/17 05:25:53;;;;;;;6.00;2.40;;;;;;;;;;5092522;28;20213;-50
2021/09/17 05:28:19;;;;;;;3.65;2.38;;;;;;;;;;5077863;28;20181;-50
2021/09/17 05:30:45;;;;;;;2.42;1.98;;;;;;;;;;5094637;28;20182;-50
2021/09/17 05:33:11;;;;;;;3.55;2.15;;;;;;;;;;5095114;28;20215;-50
2021/09/17 05:35:37;;;;;;;3.25;1.98;;;;;;;;;;5084471;28;20264;-51
2021/09/17 05:38:03;;;;;;;3.08;1.70;;;;;;;;;;5093057;28;20201;-51
2021/09/17 05:40:29;;;;;;;4.00;2.00;;;;;;;;;;5088101;28;20181;-50
2021/09/17 05:42:55;;;;;;;5.15;1.95;;;;;;;;;;5074944;28;20466;-50
2021/09/17 05:45:21;;;;;;;3.25;1.90;;;;;;;;;;5074834;28;20182;-50
2021/09/17 05:47:47;;;;;;;2.95;2.20;;;;;;;;;;5074595;28;20585;-50
2021/09/17 05:50:13;;;;;;;3.38;2.15;;;;;;;;;;5081292;28;20217;-50
2021/09/17 05:52:39;;;;;;;6.15;2.10;;;;;;;;;;5093889;28;20185;-50
2021/09/17 05:55:06;;;;;;;3.33;2.20;;;;;;;;;;5094184;28;20219;-51
2021/09/17 05:57:32;;;;;;;3.60;1.85;;;;;;;;;;5078644;28;20217;-51
2021/09/17 05:59:58;;;;;;;2.42;2.00;;;;;;;;;;5074307;28;20182;-50
2021/09/17 06:02:25;;;;;;;4.72;1.65;;;;;;;;;;5074835;28;20217;-50
2021/09/17 06:04:51;;;;;;;2.35;1.80;;;;;;;;;;5077254;28;20212;-50
2021/09/17 06:07:17;;;;;;;4.57;2.20;;;;;;;;;;5081156;28;20186;-50
2021/09/17 06:09:43;;;;;;;2.75;1.70;;;;;;;;;;5074489;28;20181;-50
2021/09/17 06:12:09;;;;;;;4.80;1.80;;;;;;;;;;5074512;28;20474;-50
2021/09/17 06:14:35;;;;;;;2.55;2.15;;;;;;;;;;5074720;28;20621;-50
2021/09/17 06:17:01;;;;;;;2.70;2.30;;;;;;;;;;5083666;28;20260;-50
2021/09/17 06:19:27;;;;;;;2.20;1.75;;;;;;;;;;5081762;28;20253;-50
2021/09/17 06:21:53;;;;;;;2.22;2.03;;;;;;;;;;5093990;28;20182;-50
2021/09/17 06:24:20;;;;;;;3.90;1.90;;;;;;;;;;5094394;28;20177;-50
2021/09/17 06:26:46;;;;;;;2.22;1.92;;;;;;;;;;5093739;28;20408;-50
2021/09/17 06:29:12;;;;;;;4.13;2.00;;;;;;;;;;5093150;28;20178;-50
2021/09/17 06:31:38;;;;;;;2.40;1.70;;;;;;;;;;5094165;28;20545;-50
2021/09/17 06:34:04;;;;;;;4.35;1.90;;;;;;;;;;5093326;28;20229;-50
2021/09/17 06:36:31;;;;;;;4.88;2.33;;;;;;;;;;5088851;28;20261;-50
2021/09/17 06:38:57;;;;;;;2.97;1.90;;;;;;;;;;5074569;28;20663;-51
2021/09/17 06:41:23;;;;;;;1.70;1.60;;;;;;;;;;5082993;28;20177;-50
2021/09/17 06:43:49;;;;;;;1.80;1.70;;;;;;;;;;5088724;28;20417;-51
2021/09/17 06:46:15;;;;;;;2.28;1.73;;;;;;;;;;5093776;28;20181;-50
2021/09/17 06:48:41;;;;;;;2.05;1.73;;;;;;;;;;5091756;28;20193;-50
2021/09/17 06:51:07;;;;;;;2.00;1.52;;;;;;;;;;5073956;28;20178;-50
2021/09/17 06:53:33;;;;;;;5.47;1.88;;;;;;;;;;5075678;28;20175;-50
2021/09/17 06:56:00;;;;;;;1.60;1.50;;;;;;;;;;5085245;28;20178;-50
2021/09/17 06:58:31;;;;;;;3.15;1.92;;;;;;;;;;5093172;28;20217;-50
2021/09/17 07:00:57;;;;;;;2.42;1.73;;;;;;;;;;5089953;28;20624;-50
2021/09/17 07:03:23;;;;;;;2.40;1.77;;;;;;;;;;5078431;28;20277;-50
2021/09/17 07:05:50;;;;;;;2.70;1.80;;;;;;;;;;5078888;28;20657;-50
2021/09/17 07:08:18;;;;;;;1.63;1.52;;;;;;;;;;5089945;28;20182;-50
2021/09/17 07:10:44;;;;;;;1.50;1.40;;;;;;;;;;5083244;28;20609;-50
2021/09/17 07:13:11;;;;;;;1.80;1.67;;;;;;;;;;5099090;28;20427;-50
2021/09/17 07:15:37;;;;;;;1.55;1.45;;;;;;;;;;5082473;28;20458;-50
2021/09/17 07:18:03;;;;;;;2.15;1.63;;;;;;;;;;5086985;28;20210;-50
2021/09/17 07:20:29;;;;;;;3.30;1.58;;;;;;;;;;5090792;28;20268;-50
2021/09/17 07:22:55;;;;;;;1.95;1.55;;;;;;;;;;5086652;28;20261;-50
2021/09/17 07:25:21;;;;;;;2.58;1.60;;;;;;;;;;5079249;28;20179;-51
2021/09/17 07:27:47;;;;;;;1.42;1.33;;;;;;;;;;5092690;28;20186;-50
2021/09/17 07:30:14;;;;;;;3.58;1.85;;;;;;;;;;5082178;28;20448;-51
2021/09/17 07:32:40;;;;;;;2.55;1.70;;;;;;;;;;5092414;28;20176;-50
2021/09/17 07:35:06;;;;;;;1.73;1.60;;;;;;;;;;5080478;28;20179;-51
2021/09/17 07:37:32;;;;;;;4.05;1.90;;;;;;;;;;5084495;28;20458;-50
2021/09/17 07:39:58;;;;;;;1.80;1.67;;;;;;;;;;5086937;28;20553;-51
2021/09/17 07:42:25;;;;;;;1.55;1.42;;;;;;;;;;5082672;28;20196;-50
2021/09/17 07:44:51;;;;;;;3.10;1.25;;;;;;;;;;5076817;28;20554;-50
2021/09/17 07:47:17;;;;;;;4.35;1.50;;;;;;;;;;5085380;28;20181;-50
2021/09/17 07:49:43;;;;;;;3.25;1.60;;;;;;;;;;5089112;28;20234;-50
2021/09/17 07:52:09;;;;;;;6.07;1.65;;;;;;;;;;5090915;28;20204;-51
2021/09/17 07:54:35;;;;;;;1.70;1.20;;;;;;;;;;5085741;28;20183;-50
2021/09/17 07:57:03;;;;;;;1.38;1.20;;;;;;;;;;5084090;28;20223;-50
2021/09/17 07:59:29;;;;;;;1.95;1.10;;;;;;;;;;5096425;28;20189;-50
2021/09/17 08:01:55;;;;;;;2.65;1.65;;;;;;;;;;5081973;28;20209;-50
2021/09/17 08:04:21;;;;;;;2.75;1.42;;;;;;;;;;5077003;28;20174;-50
2021/09/17 08:06:47;;;;;;;1.60;1.20;;;;;;;;;;5077427;28;20178;-51
2021/09/17 08:09:13;;;;;;;1.73;1.25;;;;;;;;;;5076966;28;20549;-50
2021/09/17 08:11:39;;;;;;;1.77;1.60;;;;;;;;;;5084496;28;20205;-50
2021/09/17 08:14:05;;;;;;;2.42;1.50;;;;;;;;;;5105522;28;20173;-50
2021/09/17 08:16:32;;;;;;;1.27;1.10;;;;;;;;;;5092182;28;20293;-50
2021/09/17 08:18:58;;;;;;;1.45;1.20;;;;;;;;;;5087495;28;20861;-50
2021/09/17 08:21:24;;;;;;;2.55;1.10;;;;;;;;;;5090795;28;20604;-50
2021/09/17 08:23:50;;;;;;;1.10;1.00;;;;;;;;;;5093595;28;20190;-50
2021/09/17 08:26:18;;;;;;;1.60;1.15;;;;;;;;;;5085949;28;20174;-50
2021/09/17 08:28:44;;;;;;;1.83;1.40;;;;;;;;;;5095346;28;20256;-50
2021/09/17 08:31:10;;;;;;;1.38;1.23;;;;;;;;;;5085986;28;20268;-50
2021/09/17 08:33:37;;;;;;;2.40;1.50;;;;;;;;;;5083128;28;20186;-50
2021/09/17 08:36:04;;;;;;;2.05;1.50;;;;;;;;;;5076136;28;20198;-51
2021/09/17 08:38:30;;;;;;;4.70;1.60;;;;;;;;;;5094071;28;20219;-50
2021/09/17 08:40:56;;;;;;;1.58;1.48;;;;;;;;;;5095399;28;20178;-50
2021/09/17 08:43:23;;;;;;;2.72;1.17;;;;;;;;;;5096400;28;20249;-50
2021/09/17 08:45:49;;;;;;;1.65;1.15;;;;;;;;;;5095594;28;20423;-51
2021/09/17 08:48:15;;;;;;;1.50;1.20;;;;;;;;;;5078421;28;20186;-50
2021/09/17 08:50:42;;;;;;;1.42;1.25;;;;;;;;;;5075658;28;20182;-50
2021/09/17 08:53:08;;;;;;;1.75;1.50;;;;;;;;;;5081830;28;20457;-50
2021/09/17 08:55:34;;;;;;;1.55;1.20;;;;;;;;;;5095591;28;20174;-51
2021/09/17 08:58:00;;;;;;;1.48;1.20;;;;;;;;;;5080359;28;20225;-51
2021/09/17 09:00:26;;;;;;;1.70;1.27;;;;;;;;;;5075447;28;20179;-50
2021/09/17 09:02:56;;;;;;;1.60;1.38;;;;;;;;;;5089382;28;20192;-50
2021/09/17 09:05:29;;;;;;;1.25;1.02;;;;;;;;;;5095742;28;20173;-50
2021/09/17 09:07:55;;;;;;;1.35;1.25;;;;;;;;;;5086735;28;20514;-50
2021/09/17 09:10:21;;;;;;;1.38;1.00;;;;;;;;;;5094286;28;20583;-50
2021/09/17 09:12:52;;;;;;;2.05;1.40;;;;;;;;;;5084153;28;20179;-50
2021/09/17 09:15:18;;;;;;;1.48;1.10;;;;;;;;;;5099205;28;20193;-50
2021/09/17 09:17:44;;;;;;;3.63;1.20;;;;;;;;;;5086317;28;20657;-50
2021/09/17 09:20:22;;;;;;;1.40;1.25;;;;;;;;;;5089456;28;20289;-50
2021/09/17 09:23:07;;;;;;;2.13;1.25;;;;;;;;;;5082016;28;20174;-50
2021/09/17 09:25:34;;;;;;;2.33;1.15;;;;;;;;;;5075169;28;20206;-52
2021/09/17 09:28:13;;;;;;;1.45;1.30;;;;;;;;;;5076875;28;20256;-50
2021/09/17 09:30:39;;;;;;;2.15;1.30;;;;;;;;;;5075225;28;20248;-50
2021/09/17 09:33:23;;;;;;;2.72;1.50;;;;;;;;;;5075283;28;20182;-50
2021/09/17 09:36:08;;;;;;;1.50;1.30;;;;;;;;;;5086858;28;20186;-50
2021/09/17 09:38:40;;;;;;;4.13;1.25;;;;;;;;;;5076124;28;20289;-50
2021/09/17 09:41:06;;;;;;;1.75;1.30;;;;;;;;;;5085641;28;20181;-50
2021/09/17 09:43:33;;;;;;;1.13;1.02;;;;;;;;;;5095127;28;20162;-50
2021/09/17 09:46:18;;;;;;;1.20;1.10;;;;;;;;;;5094601;28;20201;-50
2021/09/17 09:49:02;;;;;;;1.63;1.20;;;;;;;;;;5074896;28;20182;-50
2021/09/17 09:51:29;;;;;;;1.25;1.15;;;;;;;;;;5074542;28;20174;-50
2021/09/17 09:53:55;;;;;;;2.05;1.40;;;;;;;;;;5088634;28;20186;-50
2021/09/17 09:56:22;;;;;;;1.63;1.00;;;;;;;;;;5092403;28;20186;-50
2021/09/17 09:58:51;;;;;;;1.40;1.00;;;;;;;;;;5074194;28;20487;-51
2021/09/17 10:01:18;;;;;;;1.27;1.17;;;;;;;;;;5074698;28;20232;-50
2021/09/17 10:03:45;;;;;;;1.20;1.10;;;;;;;;;;5074614;28;20179;-50
2021/09/17 10:06:13;;;;;;;1.98;1.15;;;;;;;;;;5074366;28;20182;-50
2021/09/17 10:08:39;;;;;;;1.10;1.00;;;;;;;;;;5091739;28;20178;-50
2021/09/17 10:11:05;;;;;;;1.52;1.05;;;;;;;;;;5093989;28;20204;-51
2021/09/17 10:13:31;;;;;;;4.03;1.20;;;;;;;;;;5096844;28;20187;-50
2021/09/17 10:15:58;;;;;;;0.90;0.90;;;;;;;;;;5081819;28;20183;-50
2021/09/17 10:18:24;;;;;;;1.30;1.20;;;;;;;;;;5088912;28;20202;-51
2021/09/17 10:20:50;;;;;;;1.10;1.00;;;;;;;;;;5090327;28;20190;-50
2021/09/17 10:23:26;;;;;;;1.95;1.02;;;;;;;;;;5093614;28;20220;-50
2021/09/17 10:25:59;;;;;;;1.75;1.10;;;;;;;;;;5092925;28;20488;-50
2021/09/17 10:28:25;;;;;;;1.15;0.90;;;;;;;;;;5077737;28;20186;-50
2021/09/17 10:30:51;;;;;;;1.10;1.00;;;;;;;;;;5086499;28;20198;-50
2021/09/17 10:33:24;;;;;;;1.00;0.80;;;;;;;;;;5094546;28;20173;-50
2021/09/17 10:35:51;;;;;;;1.20;1.10;;;;;;;;;;5097842;28;20632;-50
2021/09/17 10:38:17;;;;;;;1.00;0.98;;;;;;;;;;5083441;28;20232;-50
2021/09/17 10:40:46;;;;;;;1.65;1.15;;;;;;;;;;5078297;28;20841;-50
2021/09/17 10:43:12;;;;;;;0.85;0.85;;;;;;;;;;5078566;28;20229;-51
2021/09/17 10:45:38;;;;;;;1.20;1.10;;;;;;;;;;5085655;28;20485;-50
2021/09/17 10:48:06;;;;;;;2.25;1.00;;;;;;;;;;5095448;28;20208;-50
2021/09/17 10:50:47;;;;;;;0.95;0.90;;;;;;;;;;5096826;28;20287;-51
2021/09/17 10:53:13;;;;;;;1.30;0.82;;;;;;;;;;5082712;28;20178;-50
2021/09/17 10:55:45;;;;;;;1.00;1.00;;;;;;;;;;5078139;28;20291;-50
2021/09/17 10:58:26;;;;;;;1.10;1.00;;;;;;;;;;5089873;28;20251;-50
2021/09/17 11:00:56;;;;;;;1.35;1.00;;;;;;;;;;5097276;28;20174;-50
2021/09/17 11:03:50;;;;;;;2.33;1.00;;;;;;;;;;5096411;28;20612;-50
2021/09/17 11:06:22;;;;;;;1.05;0.95;;;;;;;;;;5096941;28;20189;-50
2021/09/17 11:08:48;;;;;;;1.17;1.00;;;;;;;;;;5079398;28;20178;-50
2021/09/17 11:11:29;;;;;;;1.02;0.98;;;;;;;;;;5077446;28;20588;-50
2021/09/17 11:13:57;;;;;;;0.70;0.70;;;;;;;;;;5092711;28;20564;-50
2021/09/17 11:16:23;;;;;;;0.82;0.80;;;;;;;;;;5099754;28;20231;-50
2021/09/17 11:18:52;;;;;;;1.17;0.98;;;;;;;;;;5079227;28;20202;-50
2021/09/17 11:21:18;;;;;;;1.02;0.98;;;;;;;;;;5096584;28;20182;-50
2021/09/17 11:23:49;;;;;;;0.70;0.70;;;;;;;;;;5097254;28;20253;-51
2021/09/17 11:26:34;;;;;;;3.70;0.68;;;;;;;;;;5081640;28;20257;-50
2021/09/17 11:29:00;;;;;;;0.90;0.90;;;;;;;;;;5088565;28;20198;-50
2021/09/17 11:31:28;;;;;;;0.80;0.80;;;;;;;;;;5090931;28;20255;-51
2021/09/17 11:33:55;;;;;;;0.85;0.80;;;;;;;;;;5077989;28;20182;-50
2021/09/17 11:36:33;;;;;;;1.42;0.80;;;;;;;;;;5077157;28;20608;-50
2021/09/17 11:39:10;;;;;;;2.80;0.82;;;;;;;;;;5095061;28;20205;-50
2021/09/17 11:41:37;;;;;;;1.38;0.90;;;;;;;;;;5078509;28;20235;-51
2021/09/17 11:44:03;;;;;;;1.65;0.85;;;;;;;;;;5076824;28;20173;-50
2021/09/17 11:46:29;;;;;;;1.73;0.90;;;;;;;;;;5077380;28;20179;-50
2021/09/17 11:48:55;;;;;;;1.00;0.90;;;;;;;;;;5091414;28;20253;-50
2021/09/17 11:51:21;;;;;;;1.42;1.08;;;;;;;;;;5088720;28;20265;-50
2021/09/17 11:53:47;;;;;;;2.60;1.13;;;;;;;;;;5088941;28;20198;-50
2021/09/17 11:56:14;;;;;;;3.25;1.30;;;;;;;;;;5080786;28;20197;-51
2021/09/17 11:58:40;;;;;;;1.67;1.58;;;;;;;;;;5090715;28;20197;-51
2021/09/17 12:01:15;;;;;;;1.50;1.40;;;;;;;;;;5086033;28;20265;-50
2021/09/17 12:03:42;;;;;;;4.07;1.40;;;;;;;;;;5081821;28;20463;-50
2021/09/17 12:06:08;;;;;;;2.92;1.40;;;;;;;;;;5081189;28;20241;-50
2021/09/17 12:08:34;;;;;;;2.20;1.20;;;;;;;;;;5078602;28;20234;-50
2021/09/17 12:11:01;;;;;;;1.50;1.40;;;;;;;;;;5075900;28;20532;-50
2021/09/17 12:13:27;;;;;;;2.13;1.10;;;;;;;;;;5083583;28;20177;-50
2021/09/17 12:15:57;;;;;;;1.23;1.13;;;;;;;;;;5093229;28;20577;-50
2021/09/17 12:18:29;;;;;;;2.53;1.40;;;;;;;;;;5083816;28;20240;-50
2021/09/17 12:21:03;;;;;;;1.45;1.10;;;;;;;;;;5086734;28;20273;-51
2021/09/17 12:23:32;;;;;;;1.88;1.23;;;;;;;;;;5077331;28;20175;-50
2021/09/17 12:26:11;;;;;;;4.13;1.55;;;;;;;;;;5076227;28;20163;-50
2021/09/17 12:28:37;;;;;;;2.92;1.17;;;;;;;;;;5088708;28;20201;-50
2021/09/17 12:31:04;;;;;;;1.13;1.02;;;;;;;;;;5082828;28;20202;-50
2021/09/17 12:33:33;;;;;;;1.15;1.05;;;;;;;;;;5076063;28;20167;-50
2021/09/17 12:36:10;;;;;;;3.00;1.27;;;;;;;;;;5088149;28;20193;-50
2021/09/17 12:38:37;;;;;;;1.88;1.20;;;;;;;;;;5093948;28;20580;-50
2021/09/17 12:41:08;;;;;;;3.42;1.27;;;;;;;;;;5092479;28;20185;-50
2021/09/17 12:43:38;;;;;;;6.10;1.42;;;;;;;;;;5094572;28;20188;-50
2021/09/17 12:46:04;;;;;;;1.48;1.30;;;;;;;;;;5081727;28;20292;-50
2021/09/17 12:48:32;;;;;;;5.10;1.38;;;;;;;;;;5087437;28;20213;-50
2021/09/17 12:50:58;;;;;;;6.32;1.20;;;;;;;;;;5095142;28;20241;-51
2021/09/17 12:53:25;;;;;;;4.85;1.30;;;;;;;;;;5095805;28;20451;-50
2021/09/17 12:56:11;;;;;;;3.25;1.20;;;;;;;;;;5092836;28;20177;-50
2021/09/17 12:58:39;;;;;;;3.58;1.13;;;;;;;;;;5085644;28;20248;-50
2021/09/17 13:01:06;;;;;;;4.47;1.58;;;;;;;;;;5089884;28;20174;-50
2021/09/17 13:03:32;;;;;;;4.43;2.15;;;;;;;;;;5095184;28;20184;-50
2021/09/17 13:05:59;;;;;;;2.28;1.52;;;;;;;;;;5091722;28;20216;-50
2021/09/17 13:08:26;;;;;;;5.93;1.80;;;;;;;;;;5084831;28;20186;-50
2021/09/17 13:10:53;;;;;;;2.00;1.40;;;;;;;;;;5096615;28;20646;-50
2021/09/17 13:13:19;;;;;;;3.55;1.50;;;;;;;;;;5082509;28;20302;-50
2021/09/17 13:15:45;;;;;;;4.30;2.03;;;;;;;;;;5101636;28;20169;-50
2021/09/17 13:18:11;;;;;;;3.00;1.60;;;;;;;;;;5081963;28;20240;-50
2021/09/17 13:20:38;;;;;;;3.63;1.60;;;;;;;;;;5089756;28;20229;-50
2021/09/17 13:23:05;;;;;;;5.10;1.75;;;;;;;;;;5095245;28;20269;-50
2021/09/17 13:25:32;;;;;;;6.43;2.10;;;;;;;;;;5084179;28;20181;-50
2021/09/17 13:27:59;;;;;;;7.85;1.67;;;;;;;;;;5078955;28;20173;-50
2021/09/17 13:30:26;;;;;;;4.68;1.60;;;;;;;;;;5088324;28;20238;-51
2021/09/17 13:32:52;;;;;;;3.58;1.70;;;;;;;;;;5094293;28;20177;-50
2021/09/17 13:35:22;;;;;;;5.68;1.92;;;;;;;;;;5094223;28;20192;-50
2021/09/17 13:37:48;;;;;;;5.70;1.73;;;;;;;;;;5090824;28;20178;-50
2021/09/17 13:40:15;;;;;;;4.53;1.65;;;;;;;;;;5074031;28;20179;-50
2021/09/17 13:42:42;;;;;;;3.97;1.73;;;;;;;;;;5075040;28;20187;-50
2021/09/17 13:45:10;;;;;;;7.47;1.70;;;;;;;;;;5091647;28;20507;-50
2021/09/17 13:47:36;;;;;;;3.20;1.63;;;;;;;;;;5075007;28;20205;-50
2021/09/17 13:50:03;;;;;;;4.28;1.70;;;;;;;;;;5094869;28;20553;-50
2021/09/17 13:52:29;;;;;;;5.75;1.42;;;;;;;;;;5078213;28;20201;-50
2021/09/17 13:54:55;;;;;;;2.78;1.40;;;;;;;;;;5079251;28;20634;-50
2021/09/17 13:57:21;;;;;;;2.10;1.40;;;;;;;;;;5094175;28;20239;-50
2021/09/17 13:59:47;;;;;;;3.13;1.40;;;;;;;;;;5075211;28;20582;-50
2021/09/17 14:02:13;;;;;;;4.53;1.65;;;;;;;;;;5081152;28;20169;-50
2021/09/17 14:04:40;;;;;;;4.78;2.08;;;;;;;;;;5094055;28;20553;-50
2021/09/17 14:07:06;;;;;;;4.22;1.58;;;;;;;;;;5094193;28;20182;-51
2021/09/17 14:09:32;;;;;;;7.57;1.70;;;;;;;;;;5076850;28;20182;-50
2021/09/17 14:11:58;;;;;;;2.63;1.73;;;;;;;;;;5074619;28;20166;-50
2021/09/17 14:14:24;;;;;;;4.85;1.50;;;;;;;;;;5094910;28;20200;-50
2021/09/17 14:16:50;;;;;;;2.95;1.70;;;;;;;;;;5075703;28;20309;-50
2021/09/17 14:19:17;;;;;;;2.67;1.60;;;;;;;;;;5080667;28;20321;-50
2021/09/17 14:21:44;;;;;;;5.97;1.70;;;;;;;;;;5094500;28;20325;-50
2021/09/17 14:24:11;;;;;;;4.47;1.67;;;;;;;;;;5094633;28;20581;-50
2021/09/17 14:26:38;;;;;;;2.85;1.50;;;;;;;;;;5074870;28;20209;-50
2021/09/17 14:29:05;;;;;;;2.33;1.50;;;;;;;;;;5085820;28;20576;-51
2021/09/17 14:31:31;;;;;;;3.15;1.60;;;;;;;;;;5088445;28;20178;-50
2021/09/17 14:33:57;;;;;;;3.35;1.50;;;;;;;;;;5074159;28;20174;-50
2021/09/17 14:36:22;;;;;;;3.38;1.40;;;;;;;;;;5091508;28;20613;-50
2021/09/17 14:38:49;;;;;;;1.95;1.27;;;;;;;;;;5092923;28;20266;-50
2021/09/17 14:41:14;;;;;;;4.80;1.70;;;;;;;;;;5094177;28;20216;-50
2021/09/17 14:43:41;;;;;;;2.05;1.50;;;;;;;;;;5094086;28;20185;-50